Flight Track Log - Related Links

Times and Time Zones

All times are in EDT time to prevent confusion due to time zone crossing. See the GJS6253 flight status page for this flight to view local times or setup timezone preferences in your user account.

Time Position Orientation Groundspeed Altitude Reporting Facility
EDT Latitude Longitude Course Direction KTS MPH feet Rate Location/Type
Mon 10:43:02 PM 40.8000 -73.8500 33° Northeast 148 170 1,700  Level New York TRACON
Mon 10:44:02 PM 40.8500 -73.8167 27° Northeast 204 235 4,000 2,500 Climbing New York TRACON
Mon 10:45:02 PM 40.9167 -73.7667 30° Northeast 245 282 6,700 2,600 Climbing New York TRACON
Mon 10:46:02 PM 40.9667 -73.7333 27° Northeast 250 288 9,200 2,048 Climbing New York TRACON
Mon 10:47:08 PM 41.0333 -73.6667 37° Northeast 300 345 11,000 879 Climbing New York TRACON
Mon 10:48:00 PM 41.1762 -73.5459 33° Northeast  Level FlightAware Approximate
Mon 10:49:20 PM 41.2050 -73.5408 29° Northeast 349 402 12,100  Level Boston Center
Mon 10:50:20 PM 41.2911 -73.4706 32° Northeast 335 386 14,700 2,300 Climbing Boston Center
Mon 10:51:20 PM 41.3667 -73.4053 33° Northeast 343 395 16,700 1,700 Climbing Boston Center
Mon 10:52:20 PM 41.4675 -73.3267 30° Northeast 355 409 18,100 1,350 Climbing Boston Center
Mon 10:53:20 PM 41.5411 -73.2361 43° Northeast 389 448 19,400 1,500 Climbing Boston Center
Mon 10:54:20 PM 41.6272 -73.1317 42° Northeast 401 461 21,100 1,850 Climbing Boston Center
Mon 10:55:20 PM 41.7378 -73.1217 North 384 442 23,100 2,000 Climbing Boston Center
Mon 10:56:20 PM 41.8522 -73.1453 351° North 389 448 25,100 1,750 Climbing Boston Center
Mon 10:57:20 PM 41.9686 -73.1661 352° North 397 457 26,600 864 Climbing Boston Center
Mon 10:58:32 PM 42.0875 -73.1869 353° North 417 480 27,000 182 Climbing Boston Center
Mon 10:59:32 PM 42.2414 -73.2142 353° North 447 514 27,000  Level Boston Center
Mon 11:00:32 PM 42.3706 -73.2297 355° North 458 527 27,000  Level Boston Center
Mon 11:01:32 PM 42.4997 -73.2539 352° North 463 533 27,000  Level Boston Center
Mon 11:02:32 PM 42.6244 -73.2808 351° North 463 533 27,000 -350 Level Boston Center
Mon 11:03:32 PM 42.7494 -73.3025 353° North 458 527 26,300 -1,100 Descending Boston Center
Mon 11:04:32 PM 42.8700 -73.3239 353° North 453 521 24,800 -1,150 Descending Boston Center
Mon 11:05:32 PM 42.9886 -73.3428 353° North 435 501 24,000 -364 Descending Boston Center
Mon 11:06:44 PM 43.1056 -73.3331 North 421 484 24,000  Level Boston Center
Mon 11:07:44 PM 43.2453 -73.3153 North 415 478 24,000 -100 Level Boston Center
Mon 11:08:44 PM 43.3600 -73.2997 North 420 483 23,800 -1,300 Descending Boston Center
Mon 11:09:44 PM 43.4728 -73.2842 North 420 483 21,400 -2,350 Descending Boston Center
Mon 11:10:44 PM 43.5728 -73.2711 North 393 452 19,100 -2,250 Descending Boston Center
Mon 11:11:44 PM 43.6792 -73.2583 North 368 423 16,900 -2,100 Descending Boston Center
Mon 11:12:44 PM 43.7772 -73.2453 North 343 395 14,900 -1,950 Descending Boston Center
Mon 11:13:44 PM 43.8606 -73.2492 358° North 343 395 13,000 -1,650 Descending Boston Center
Mon 11:14:44 PM 43.9481 -73.2533 358° North 324 373 11,600 -1,350 Descending Boston Center
Mon 11:15:44 PM 44.0250 -73.2600 356° North 289 333 10,300 -1,300 Descending Boston Center
Mon 11:16:44 PM 44.0981 -73.2639 358° North 269 310 9,000 -1,400 Descending Boston Center
Mon 11:17:44 PM 44.1689 -73.2650 359° North 252 290 7,500 -1,500 Descending Boston Center
Mon 11:18:44 PM 44.2375 -73.2689 358° North 252 290 6,000 -1,450 Descending Boston Center
Mon 11:19:44 PM 44.3083 -73.2728 358° North 252 290 4,600 -1,150 Descending Boston Center
Mon 11:20:44 PM 44.3708 -73.2736 359° North 241 277 3,700 -950 Descending Boston Center
Mon 11:21:44 PM 44.4292 -73.2714 North 222 255 2,700 -850 Descending Boston Center
Mon 11:22:44 PM 44.4769 -73.3042 334° Northwest 194 223 2,000 -400 Descending Boston Center
Mon 11:23:44 PM 44.5144 -73.2872 18° North 133 153 1,900 -300 Descending Boston Center
Mon 11:24:44 PM 44.5108 -73.2289 95° East 111 128 1,400 -600 Descending Boston Center
Mon 11:25:44 PM 44.4881 -73.1822 124° Southeast 130 150 700 -500 Descending Boston Center
Mon 11:26:56 PM 44.4717 -73.1411 119° Southeast 142 163 300 -333 Descending Boston Center

Login

Don't have an account? Register now (free) for customized features, flight alerts, and more!